createdAt,value
2022-12-08T00:01:54.768Z,4.50
2022-12-08T00:03:59.561Z,4.59
2022-12-08T00:06:21.919Z,4.47
2022-12-08T00:08:42.239Z,4.41
2022-12-08T00:10:49.446Z,4.48
2022-12-08T00:12:52.815Z,4.43
2022-12-08T00:14:55.634Z,4.34
2022-12-08T00:16:59.249Z,4.33
2022-12-08T00:19:02.136Z,4.38
2022-12-08T00:21:05.833Z,4.41
2022-12-08T00:23:08.685Z,4.46
2022-12-08T00:25:11.438Z,4.49
2022-12-08T00:27:18.093Z,4.47
2022-12-08T00:29:21.594Z,4.37
2022-12-08T00:31:24.603Z,4.46
2022-12-08T00:33:29.303Z,4.55
2022-12-08T00:35:32.331Z,4.52
2022-12-08T00:37:35.724Z,4.63
2022-12-08T00:39:39.331Z,4.65
2022-12-08T00:42:00.125Z,4.57
2022-12-08T00:44:04.544Z,4.63
2022-12-08T00:46:07.614Z,4.65
2022-12-08T00:48:10.609Z,4.66
2022-12-08T00:50:13.677Z,4.63
2022-12-08T00:52:16.714Z,4.64
2022-12-08T00:54:20.713Z,4.64
2022-12-08T00:56:24.402Z,4.62
2022-12-08T00:58:27.336Z,4.62
2022-12-08T01:00:31.592Z,4.75
2022-12-08T01:02:34.595Z,4.67
2022-12-08T01:04:37.589Z,4.74
2022-12-08T01:06:43.438Z,4.69
2022-12-08T01:08:46.226Z,4.59
2022-12-08T01:10:48.996Z,4.58
2022-12-08T01:12:51.746Z,4.68
2022-12-08T01:14:57.981Z,4.64
2022-12-08T01:17:04.919Z,4.62
2022-12-08T01:19:07.969Z,4.62
2022-12-08T01:21:10.895Z,4.65
2022-12-08T01:23:13.788Z,4.62
2022-12-08T01:25:16.679Z,4.67
2022-12-08T01:27:22.155Z,4.67
2022-12-08T01:29:24.919Z,4.72
2022-12-08T01:31:27.986Z,4.75
2022-12-08T01:33:32.950Z,4.78
2022-12-08T01:35:35.573Z,4.71
2022-12-08T01:37:38.352Z,4.60
2022-12-08T01:39:41.548Z,4.64
2022-12-08T01:41:45.695Z,4.62
2022-12-08T01:43:59.347Z,4.66
2022-12-08T01:46:02.221Z,4.61
2022-12-08T01:48:09.493Z,4.56
2022-12-08T01:50:16.290Z,4.57
2022-12-08T01:52:24.345Z,4.64
2022-12-08T01:54:30.273Z,4.47
2022-12-08T01:56:38.568Z,4.40
2022-12-08T01:58:46.752Z,4.35
2022-12-08T02:00:50.267Z,4.43
2022-12-08T02:02:58.141Z,4.48
2022-12-08T02:05:01.315Z,4.45
2022-12-08T02:07:08.403Z,4.50
2022-12-08T02:09:11.929Z,4.41
2022-12-08T02:11:14.813Z,4.41
2022-12-08T02:13:20.102Z,4.42
2022-12-08T02:15:31.544Z,4.36
2022-12-08T02:17:51.068Z,4.28
2022-12-08T02:20:24.406Z,4.38
2022-12-08T02:22:38.182Z,4.38
2022-12-08T02:24:48.880Z,4.42
2022-12-08T02:27:23.871Z,4.47
2022-12-08T02:29:52.440Z,4.42
2022-12-08T02:32:06.541Z,4.37
2022-12-08T02:34:25.516Z,4.35
2022-12-08T02:36:34.068Z,4.19
2022-12-08T02:38:47.230Z,4.26
2022-12-08T02:41:01.394Z,4.34
2022-12-08T02:43:10.639Z,4.33
2022-12-08T02:45:18.404Z,4.23
2022-12-08T02:47:24.772Z,4.25
2022-12-08T02:49:31.952Z,4.36
2022-12-08T02:51:35.119Z,4.38
2022-12-08T02:53:38.221Z,4.40
2022-12-08T02:55:51.951Z,4.40
2022-12-08T02:58:17.113Z,4.34
2022-12-08T03:00:22.165Z,4.36
2022-12-08T03:02:42.618Z,4.39
2022-12-08T03:04:56.645Z,4.42
2022-12-08T03:07:06.066Z,4.40
2022-12-08T03:09:15.246Z,4.43
2022-12-08T03:11:23.217Z,4.39
2022-12-08T03:13:33.395Z,4.37
2022-12-08T03:15:37.310Z,4.36
2022-12-08T03:17:44.370Z,4.39
2022-12-08T03:19:49.199Z,4.36
2022-12-08T03:21:54.440Z,4.40
2022-12-08T03:23:58.475Z,4.38
2022-12-08T03:26:09.535Z,4.43
2022-12-08T03:28:13.037Z,4.38
2022-12-08T03:30:16.200Z,4.40
2022-12-08T03:32:25.548Z,4.36
2022-12-08T03:34:30.730Z,4.32
2022-12-08T03:36:35.056Z,4.36
2022-12-08T03:38:39.709Z,4.34
2022-12-08T03:40:43.772Z,4.33
2022-12-08T03:42:46.808Z,4.30
2022-12-08T03:44:49.739Z,4.31
2022-12-08T03:46:52.535Z,4.30
2022-12-08T03:48:56.142Z,4.32
2022-12-08T03:50:58.952Z,4.36
2022-12-08T03:53:03.146Z,4.36
2022-12-08T03:55:06.967Z,4.34
2022-12-08T03:57:09.807Z,4.34
2022-12-08T03:59:12.686Z,4.31
2022-12-08T04:01:15.556Z,4.33
2022-12-08T04:03:18.479Z,4.31
2022-12-08T04:05:21.291Z,4.32
2022-12-08T04:07:24.107Z,4.32
2022-12-08T04:09:28.214Z,4.27
2022-12-08T04:11:33.996Z,4.30
2022-12-08T04:13:37.517Z,4.32
2022-12-08T04:15:40.316Z,4.33
2022-12-08T04:17:43.204Z,4.34
2022-12-08T04:19:45.996Z,4.32
2022-12-08T04:21:49.192Z,4.34
2022-12-08T04:23:54.952Z,4.38
2022-12-08T04:26:03.458Z,4.44
2022-12-08T04:28:07.188Z,4.45
2022-12-08T04:30:10.827Z,4.40
2022-12-08T04:32:13.645Z,4.41
2022-12-08T04:34:16.494Z,4.33
2022-12-08T04:36:19.400Z,4.32
2022-12-08T04:38:22.622Z,4.33
2022-12-08T04:40:25.525Z,4.31
2022-12-08T04:42:29.661Z,4.28
2022-12-08T04:44:32.494Z,4.30
2022-12-08T04:46:40.225Z,4.30
2022-12-08T04:48:45.884Z,4.30
2022-12-08T04:50:48.773Z,4.47
2022-12-08T04:52:51.604Z,4.37
2022-12-08T04:54:54.521Z,4.33
2022-12-08T04:56:57.312Z,4.31
2022-12-08T04:59:01.496Z,4.30
2022-12-08T05:01:04.404Z,4.40
2022-12-08T05:03:07.568Z,4.38
2022-12-08T05:05:10.503Z,4.25
2022-12-08T05:07:13.320Z,4.25
2022-12-08T05:09:16.226Z,4.30
2022-12-08T05:11:19.567Z,4.19
2022-12-08T05:13:22.403Z,4.10
2022-12-08T05:15:26.716Z,4.13
2022-12-08T05:17:29.488Z,4.15
2022-12-08T05:19:32.200Z,4.09
2022-12-08T05:21:35.073Z,4.13
2022-12-08T05:23:37.929Z,4.20
2022-12-08T05:25:40.901Z,4.22
2022-12-08T05:27:43.840Z,4.11
2022-12-08T05:29:48.054Z,4.07
2022-12-08T05:31:52.282Z,4.12
2022-12-08T05:33:58.433Z,4.07
2022-12-08T05:36:05.442Z,4.02
2022-12-08T05:38:08.551Z,4.11
2022-12-08T05:40:11.704Z,4.17
2022-12-08T05:42:14.430Z,4.12
2022-12-08T05:44:17.178Z,4.15
2022-12-08T05:46:20.052Z,4.08
2022-12-08T05:48:24.237Z,3.97
2022-12-08T05:50:27.006Z,3.89
2022-12-08T05:52:31.241Z,3.95
2022-12-08T05:54:34.055Z,4.00
2022-12-08T05:56:36.889Z,4.02
2022-12-08T05:58:39.730Z,4.06
2022-12-08T06:00:43.365Z,3.97
2022-12-08T06:02:46.297Z,3.95
2022-12-08T06:04:50.569Z,3.94
2022-12-08T06:06:53.574Z,3.89
2022-12-08T06:08:56.593Z,3.89
2022-12-08T06:10:59.325Z,3.84
2022-12-08T06:13:02.141Z,3.88
2022-12-08T06:15:05.592Z,3.94
2022-12-08T06:17:08.742Z,3.89
2022-12-08T06:19:11.544Z,3.83
2022-12-08T06:21:17.363Z,3.87
2022-12-08T06:23:20.162Z,3.75
2022-12-08T06:25:23.377Z,3.75
2022-12-08T06:27:26.294Z,3.69
2022-12-08T06:29:29.084Z,3.66
2022-12-08T06:31:31.989Z,3.72
2022-12-08T06:33:34.888Z,3.81
2022-12-08T06:35:38.222Z,3.89
2022-12-08T06:37:42.314Z,3.95
2022-12-08T06:39:45.193Z,3.96
2022-12-08T06:42:05.563Z,3.90
2022-12-08T06:44:08.363Z,3.87
2022-12-08T06:46:13.309Z,3.76
2022-12-08T06:48:16.183Z,3.74
2022-12-08T06:50:19.080Z,3.86
2022-12-08T06:52:21.975Z,3.92
2022-12-08T06:54:26.219Z,4.03
2022-12-08T06:56:30.062Z,3.97
2022-12-08T06:58:33.374Z,3.94
2022-12-08T07:00:36.198Z,3.95
2022-12-08T07:02:39.733Z,3.89
2022-12-08T07:04:42.563Z,3.89
2022-12-08T07:06:45.341Z,3.94
2022-12-08T07:08:48.144Z,3.94
2022-12-08T07:10:52.461Z,3.97
2022-12-08T07:12:55.264Z,3.92
2022-12-08T07:14:58.242Z,4.01
2022-12-08T07:17:02.074Z,4.07
2022-12-08T07:19:04.974Z,4.09
2022-12-08T07:21:09.617Z,4.11
2022-12-08T07:23:12.426Z,4.10
2022-12-08T07:25:15.377Z,4.19
2022-12-08T07:27:19.547Z,4.15
2022-12-08T07:29:26.188Z,4.01
2022-12-08T07:31:29.567Z,4.08
2022-12-08T07:33:32.859Z,4.15
2022-12-08T07:35:35.636Z,4.17
2022-12-08T07:37:39.050Z,4.15
2022-12-08T07:39:41.839Z,4.15
2022-12-08T07:41:44.616Z,4.07
2022-12-08T07:43:49.366Z,4.08
2022-12-08T07:45:52.344Z,3.87
2022-12-08T07:47:55.175Z,3.82
2022-12-08T07:49:57.915Z,3.76
2022-12-08T07:52:00.699Z,3.84
2022-12-08T07:54:03.470Z,3.91
2022-12-08T07:56:07.591Z,3.91
2022-12-08T07:58:10.908Z,3.92
2022-12-08T08:00:16.519Z,3.94
2022-12-08T08:02:25.400Z,3.93
2022-12-08T08:04:28.962Z,3.94
2022-12-08T08:06:32.335Z,3.86
2022-12-08T08:08:35.182Z,3.85
2022-12-08T08:10:38.017Z,3.76
2022-12-08T08:12:40.846Z,3.67
2022-12-08T08:14:44.086Z,3.89
2022-12-08T08:16:48.380Z,3.94
2022-12-08T08:18:52.464Z,3.91
2022-12-08T08:20:55.209Z,3.94
2022-12-08T08:22:57.975Z,3.95
2022-12-08T08:25:00.850Z,3.88
2022-12-08T08:27:03.817Z,3.98
2022-12-08T08:29:06.607Z,4.15
2022-12-08T08:31:09.466Z,4.09
2022-12-08T08:33:14.096Z,4.08
2022-12-08T08:35:17.239Z,4.09
2022-12-08T08:37:20.275Z,4.09
2022-12-08T08:39:23.274Z,4.18
2022-12-08T08:41:26.123Z,4.03
2022-12-08T08:43:37.810Z,4.11
2022-12-08T08:45:40.800Z,4.20
2022-12-08T08:47:43.602Z,4.23
2022-12-08T08:49:48.151Z,4.25
2022-12-08T08:51:50.928Z,4.26
2022-12-08T08:53:53.738Z,4.31
2022-12-08T08:55:56.595Z,4.43
2022-12-08T08:57:59.416Z,4.35
2022-12-08T09:00:02.519Z,4.36
2022-12-08T09:02:05.631Z,4.42
2022-12-08T09:04:08.519Z,4.50
2022-12-08T09:06:12.930Z,4.58
2022-12-08T09:08:15.924Z,4.63
2022-12-08T09:10:18.818Z,4.64
2022-12-08T09:12:22.090Z,4.69
2022-12-08T09:14:25.408Z,4.88
2022-12-08T09:16:28.328Z,4.79
2022-12-08T09:18:31.550Z,4.76
2022-12-08T09:20:34.924Z,4.81
2022-12-08T09:22:39.101Z,4.78
2022-12-08T09:24:41.869Z,4.74
2022-12-08T09:26:45.433Z,4.75
2022-12-08T09:28:48.224Z,4.76
2022-12-08T09:30:52.773Z,4.83
2022-12-08T09:32:55.676Z,4.80
2022-12-08T09:34:59.594Z,4.73
2022-12-08T09:37:02.420Z,4.82
2022-12-08T09:39:06.905Z,4.78
2022-12-08T09:41:17.099Z,4.78
2022-12-08T09:43:43.357Z,4.66
2022-12-08T09:45:46.936Z,4.65
2022-12-08T09:47:59.622Z,4.69
2022-12-08T09:50:08.518Z,4.83
2022-12-08T09:52:21.150Z,4.91
2022-12-08T09:54:32.822Z,5.00
2022-12-08T09:56:38.122Z,5.08
2022-12-08T09:58:51.922Z,5.02
2022-12-08T10:00:54.749Z,5.11
2022-12-08T10:02:57.911Z,5.16
2022-12-08T10:05:00.896Z,5.24
2022-12-08T10:07:13.642Z,5.30
2022-12-08T10:09:30.187Z,5.22
2022-12-08T10:11:42.010Z,5.35
2022-12-08T10:13:56.008Z,5.34
2022-12-08T10:16:16.707Z,5.31
2022-12-08T10:18:28.380Z,5.38
2022-12-08T10:20:38.291Z,5.49
2022-12-08T10:22:44.700Z,5.50
2022-12-08T10:24:56.676Z,5.45
2022-12-08T10:27:00.078Z,5.45
2022-12-08T10:29:04.315Z,5.37
2022-12-08T10:31:07.203Z,5.39
2022-12-08T10:33:15.215Z,5.41
2022-12-08T10:35:20.261Z,5.52
2022-12-08T10:37:23.324Z,5.48
2022-12-08T10:39:35.707Z,5.52
2022-12-08T10:41:41.136Z,5.49
2022-12-08T10:43:47.249Z,5.44
2022-12-08T10:45:50.207Z,5.42
2022-12-08T10:48:04.465Z,5.18
2022-12-08T10:50:19.507Z,5.03
2022-12-08T10:52:24.137Z,5.14
2022-12-08T10:54:30.552Z,5.24
2022-12-08T10:56:34.175Z,5.16
2022-12-08T10:58:40.842Z,5.13
2022-12-08T11:00:43.867Z,5.14
2022-12-08T11:02:56.092Z,5.31
2022-12-08T11:05:00.403Z,5.32
2022-12-08T11:07:05.726Z,5.27
2022-12-08T11:09:25.694Z,5.27
2022-12-08T11:11:40.325Z,5.22
2022-12-08T11:13:44.534Z,5.23
2022-12-08T11:15:47.905Z,5.34
2022-12-08T11:18:01.291Z,5.42
2022-12-08T11:20:20.426Z,5.42
2022-12-08T11:22:26.132Z,5.41
2022-12-08T11:24:33.495Z,5.30
2022-12-08T11:26:40.235Z,5.23
2022-12-08T11:28:44.478Z,5.15
2022-12-08T11:30:54.321Z,5.04
2022-12-08T11:33:00.018Z,5.08
2022-12-08T11:35:05.747Z,5.07
2022-12-08T11:37:17.030Z,5.06
2022-12-08T11:39:20.142Z,5.11
2022-12-08T11:41:25.094Z,5.27
2022-12-08T11:43:30.103Z,5.36
2022-12-08T11:45:36.613Z,5.42
2022-12-08T11:47:50.104Z,5.43
2022-12-08T11:50:05.276Z,5.60
2022-12-08T11:52:18.391Z,5.57
2022-12-08T11:54:25.078Z,5.70
2022-12-08T11:56:34.506Z,5.65
2022-12-08T11:58:42.147Z,5.70
2022-12-08T12:00:46.475Z,5.72
2022-12-08T12:02:56.078Z,5.69
2022-12-08T12:05:06.031Z,5.73
2022-12-08T12:07:48.113Z,5.74
2022-12-08T12:10:07.483Z,5.74
2022-12-08T12:12:19.403Z,5.84
2022-12-08T12:14:43.269Z,5.95
2022-12-08T12:17:00.988Z,5.97
2022-12-08T12:19:11.047Z,5.98
2022-12-08T12:21:19.280Z,5.77
2022-12-08T12:23:25.442Z,5.79
2022-12-08T12:25:29.005Z,5.82
2022-12-08T12:27:39.324Z,5.88
2022-12-08T12:29:55.276Z,5.94
2022-12-08T12:32:03.195Z,5.93
2022-12-08T12:34:09.460Z,6.08
2022-12-08T12:36:14.087Z,5.90
2022-12-08T12:38:42.584Z,5.73
2022-12-08T12:40:45.490Z,5.75
2022-12-08T12:43:09.940Z,5.88
2022-12-08T12:45:30.768Z,5.78
2022-12-08T12:47:55.624Z,5.73
2022-12-08T12:50:37.015Z,5.50
2022-12-08T12:52:45.978Z,5.48
2022-12-08T12:55:40.241Z,5.58
2022-12-08T12:57:52.434Z,5.59
2022-12-08T13:00:09.835Z,5.68
2022-12-08T13:02:25.632Z,5.81
2022-12-08T13:04:35.035Z,5.77
2022-12-08T13:06:42.233Z,5.84
2022-12-08T13:08:52.839Z,5.93
2022-12-08T13:11:01.751Z,5.99
2022-12-08T13:13:17.331Z,6.05
2022-12-08T13:15:21.814Z,6.10
2022-12-08T13:17:28.291Z,6.08
2022-12-08T13:19:34.238Z,6.13
2022-12-08T13:21:39.120Z,6.04
2022-12-08T13:23:46.330Z,5.89
2022-12-08T13:26:09.423Z,5.81
2022-12-08T13:28:20.882Z,5.90
2022-12-08T13:30:43.991Z,6.03
2022-12-08T13:35:20.701Z,5.99
2022-12-08T13:37:27.319Z,5.93
2022-12-08T13:39:36.290Z,5.92
2022-12-08T13:41:44.398Z,5.90
2022-12-08T13:44:30.954Z,5.92
2022-12-08T13:47:03.216Z,6.08
2022-12-08T13:58:38.071Z,5.82
2022-12-08T14:00:42.307Z,5.99
2022-12-08T14:02:48.599Z,5.92
2022-12-08T14:07:15.710Z,5.90
2022-12-08T14:09:21.042Z,5.86
2022-12-08T14:11:35.214Z,5.77
2022-12-08T14:13:38.233Z,5.85
2022-12-08T14:15:42.469Z,5.82
2022-12-08T14:17:52.210Z,5.86
2022-12-08T14:19:57.922Z,5.86
2022-12-08T14:22:03.038Z,5.86
2022-12-08T14:24:06.116Z,5.89
2022-12-08T14:26:12.305Z,5.90
2022-12-08T14:28:15.111Z,5.90
2022-12-08T14:30:22.374Z,5.88
2022-12-08T14:32:32.537Z,5.90
2022-12-08T14:34:40.473Z,5.89
2022-12-08T14:36:43.403Z,5.89
2022-12-08T14:38:46.296Z,5.74
2022-12-08T14:40:50.416Z,5.76
2022-12-08T14:42:55.479Z,5.71
2022-12-08T14:45:01.912Z,5.62
2022-12-08T14:47:06.358Z,5.41
2022-12-08T14:49:32.747Z,5.45
2022-12-08T14:51:36.796Z,5.37
2022-12-08T14:53:42.411Z,5.37
2022-12-08T14:55:47.922Z,5.42
2022-12-08T14:57:50.839Z,5.36
2022-12-08T14:59:53.835Z,5.42
2022-12-08T15:02:13.591Z,5.33
2022-12-08T15:04:24.111Z,5.27
2022-12-08T15:06:27.092Z,5.32
2022-12-08T15:08:30.638Z,5.37
2022-12-08T15:10:37.988Z,5.38
2022-12-08T15:12:40.796Z,5.40
2022-12-08T15:14:55.345Z,5.36
2022-12-08T15:16:58.320Z,5.41
2022-12-08T15:19:19.632Z,5.31
2022-12-08T15:21:30.992Z,5.31
2022-12-08T15:23:44.820Z,5.27
2022-12-08T15:25:47.761Z,5.20
2022-12-08T15:27:52.955Z,5.27
2022-12-08T15:29:55.801Z,5.22
2022-12-08T15:32:01.841Z,5.20
2022-12-08T15:34:04.669Z,5.16
2022-12-08T15:36:10.298Z,5.23
2022-12-08T15:38:21.535Z,5.17
2022-12-08T15:40:26.971Z,5.16
2022-12-08T15:42:29.741Z,5.18
2022-12-08T15:44:32.915Z,5.25
2022-12-08T15:46:35.949Z,5.29
2022-12-08T15:48:39.161Z,5.29
2022-12-08T15:50:42.033Z,5.23
2022-12-08T15:52:46.379Z,5.27
2022-12-08T15:54:50.028Z,5.30
2022-12-08T15:57:18.583Z,5.29
2022-12-08T15:59:22.266Z,5.27
2022-12-08T16:01:25.743Z,5.28
2022-12-08T16:06:26.917Z,5.37
2022-12-08T16:08:44.495Z,5.22
2022-12-08T16:11:28.872Z,5.16
2022-12-08T16:15:53.593Z,5.11
2022-12-08T16:17:58.747Z,5.17
2022-12-08T16:20:02.161Z,5.21
2022-12-08T16:22:44.948Z,5.23
2022-12-08T16:24:29.283Z,5.11
2022-12-08T16:28:55.624Z,5.07
2022-12-08T16:30:58.693Z,5.11
2022-12-08T16:33:01.579Z,5.09
2022-12-08T16:35:05.539Z,5.02
2022-12-08T16:37:09.797Z,5.11
2022-12-08T16:39:14.178Z,5.02
2022-12-08T16:41:36.696Z,5.02
2022-12-08T16:43:39.660Z,4.96
2022-12-08T16:45:45.173Z,4.96
2022-12-08T16:47:49.946Z,4.84
2022-12-08T16:49:52.717Z,4.82
2022-12-08T16:51:55.543Z,4.77
2022-12-08T16:53:58.652Z,4.73
2022-12-08T16:56:01.592Z,4.78
2022-12-08T16:58:06.021Z,4.83
2022-12-08T17:00:12.388Z,4.74
2022-12-08T17:02:16.658Z,4.65
2022-12-08T17:04:34.917Z,4.74
2022-12-08T17:06:37.801Z,4.76
2022-12-08T17:08:41.587Z,4.89
2022-12-08T17:10:44.430Z,4.90
2022-12-08T17:12:47.543Z,4.93
2022-12-08T17:14:51.675Z,4.97
2022-12-08T17:16:54.553Z,4.92
2022-12-08T17:18:59.176Z,4.90
2022-12-08T17:21:02.022Z,4.92
2022-12-08T17:23:04.780Z,4.97
2022-12-08T17:25:08.731Z,4.98
2022-12-08T17:27:11.555Z,5.01
2022-12-08T17:29:14.451Z,4.98
2022-12-08T17:31:18.962Z,4.98
2022-12-08T17:33:26.768Z,4.98
2022-12-08T17:35:29.859Z,4.98
2022-12-08T17:37:32.779Z,4.97
2022-12-08T17:39:35.627Z,4.94
2022-12-08T17:41:38.612Z,4.99
2022-12-08T17:43:41.496Z,4.99
2022-12-08T17:45:45.734Z,4.98
2022-12-08T17:47:49.930Z,4.96
2022-12-08T17:49:52.978Z,4.90
2022-12-08T17:51:57.475Z,4.90
2022-12-08T17:54:00.254Z,4.92
2022-12-08T17:56:03.018Z,4.93
2022-12-08T17:58:06.250Z,4.89
2022-12-08T18:00:12.054Z,4.90
2022-12-08T18:02:15.022Z,4.88
2022-12-08T18:04:19.307Z,4.91
2022-12-08T18:06:24.624Z,4.89
2022-12-08T18:08:29.811Z,4.94
2022-12-08T18:10:32.750Z,4.93
2022-12-08T18:12:35.891Z,4.90
2022-12-08T18:14:38.746Z,4.95
2022-12-08T18:16:44.545Z,4.92
2022-12-08T18:18:47.756Z,4.95
2022-12-08T18:20:51.999Z,4.90
2022-12-08T18:22:54.804Z,4.87
2022-12-08T18:24:57.595Z,4.88
2022-12-08T18:27:00.525Z,4.89
2022-12-08T18:29:03.702Z,4.86
2022-12-08T18:31:09.780Z,4.89
2022-12-08T18:33:12.680Z,4.87
2022-12-08T18:35:15.554Z,4.86
2022-12-08T18:37:20.086Z,4.84
2022-12-08T18:39:25.436Z,4.82
2022-12-08T18:41:28.297Z,4.80
2022-12-08T18:43:31.103Z,4.79
2022-12-08T18:45:36.641Z,4.84
2022-12-08T18:47:41.122Z,4.83
2022-12-08T18:49:44.212Z,4.82
2022-12-08T18:51:47.401Z,4.81
2022-12-08T18:53:52.766Z,4.80
2022-12-08T18:55:55.685Z,4.79
2022-12-08T18:57:58.431Z,4.79
2022-12-08T19:00:02.524Z,4.80
2022-12-08T19:02:06.170Z,4.83
2022-12-08T19:06:33.014Z,4.78
2022-12-08T19:08:35.933Z,4.79
2022-12-08T19:10:40.147Z,4.81
2022-12-08T19:12:43.120Z,4.80
2022-12-08T19:14:45.963Z,4.78
2022-12-08T19:16:48.815Z,4.81
2022-12-08T19:18:51.639Z,4.80
2022-12-08T19:20:56.853Z,4.88
2022-12-08T19:22:59.842Z,4.83
2022-12-08T19:25:03.174Z,4.84
2022-12-08T19:27:07.612Z,4.85
2022-12-08T19:29:10.828Z,4.85
2022-12-08T19:31:13.866Z,4.82
2022-12-08T19:33:17.536Z,4.82
2022-12-08T19:35:20.355Z,4.84
2022-12-08T19:37:23.302Z,4.83
2022-12-08T19:39:44.302Z,4.80
2022-12-08T19:42:10.716Z,4.76
2022-12-08T19:44:39.391Z,4.79
2022-12-08T19:46:42.322Z,4.78
2022-12-08T19:48:45.807Z,4.80
2022-12-08T19:50:48.679Z,4.81
2022-12-08T19:52:51.464Z,4.80
2022-12-08T19:54:54.234Z,4.78
2022-12-08T19:56:59.969Z,4.77
2022-12-08T19:59:02.689Z,4.75
2022-12-08T20:01:07.050Z,4.75
2022-12-08T20:03:10.136Z,4.72
2022-12-08T20:05:13.904Z,4.73
2022-12-08T20:07:16.867Z,4.71
2022-12-08T20:09:20.213Z,4.70
2022-12-08T20:11:23.137Z,4.69
2022-12-08T20:13:45.671Z,4.70
2022-12-08T20:15:48.658Z,4.68
2022-12-08T20:17:53.056Z,4.68
2022-12-08T20:19:55.979Z,4.67
2022-12-08T20:21:58.957Z,4.66
2022-12-08T20:24:02.025Z,4.68
2022-12-08T20:26:06.215Z,4.70
2022-12-08T20:28:10.926Z,4.65
2022-12-08T20:30:17.254Z,4.67
2022-12-08T20:32:20.496Z,4.68
2022-12-08T20:34:24.763Z,4.68
2022-12-08T20:36:28.379Z,4.65
2022-12-08T20:38:32.110Z,4.67
2022-12-08T20:40:35.099Z,4.74
2022-12-08T20:42:37.999Z,4.70
2022-12-08T20:44:44.174Z,4.82
2022-12-08T20:46:49.636Z,4.86
2022-12-08T20:48:52.756Z,4.81
2022-12-08T20:50:56.999Z,4.79
2022-12-08T20:53:00.487Z,4.74
2022-12-08T20:55:03.333Z,4.70
2022-12-08T20:57:06.640Z,4.64
2022-12-08T20:59:14.541Z,4.63
2022-12-08T21:01:19.958Z,4.59
2022-12-08T21:03:23.219Z,4.51
2022-12-08T21:05:26.391Z,4.52
2022-12-08T21:07:30.846Z,4.53
2022-12-08T21:09:33.896Z,4.54
2022-12-08T21:11:37.143Z,4.58
2022-12-08T21:13:40.505Z,4.62
2022-12-08T21:15:46.703Z,4.67
2022-12-08T21:17:49.839Z,4.62
2022-12-08T21:19:52.836Z,4.62
2022-12-08T21:21:55.786Z,4.60
2022-12-08T21:24:01.041Z,4.61
2022-12-08T21:26:10.486Z,4.57
2022-12-08T21:28:13.905Z,4.56
2022-12-08T21:30:17.175Z,4.57
2022-12-08T21:32:22.435Z,4.58
2022-12-08T21:34:31.466Z,4.57
2022-12-08T21:36:34.425Z,4.55
2022-12-08T21:38:38.491Z,4.53
2022-12-08T21:40:42.897Z,4.55
2022-12-08T21:42:45.076Z,4.51
2022-12-08T21:44:48.017Z,4.51
2022-12-08T21:46:51.243Z,4.51
2022-12-08T21:48:54.308Z,4.49
2022-12-08T21:50:57.796Z,4.51
2022-12-08T21:53:01.197Z,4.50
2022-12-08T21:55:04.150Z,4.51
2022-12-08T21:57:08.371Z,4.49
2022-12-08T21:59:11.522Z,4.52
2022-12-08T22:01:14.856Z,4.53
2022-12-08T22:03:17.947Z,4.58
2022-12-08T22:05:21.040Z,4.55
2022-12-08T22:07:24.426Z,4.54
2022-12-08T22:09:27.629Z,4.53
2022-12-08T22:11:30.928Z,4.49
2022-12-08T22:13:36.639Z,4.55
2022-12-08T22:15:39.634Z,4.49
2022-12-08T22:17:44.011Z,4.53
2022-12-08T22:19:47.172Z,4.51
2022-12-08T22:21:49.975Z,4.48
2022-12-08T22:23:52.774Z,4.42
2022-12-08T22:25:59.217Z,4.42
2022-12-08T22:28:02.018Z,4.49
2022-12-08T22:30:08.120Z,4.46
2022-12-08T22:32:11.288Z,4.46
2022-12-08T22:34:14.817Z,4.37
2022-12-08T22:36:20.287Z,4.38
2022-12-08T22:38:23.045Z,4.38
2022-12-08T22:40:25.736Z,4.39
2022-12-08T22:42:28.662Z,4.40
2022-12-08T22:44:31.720Z,4.41
2022-12-08T22:46:36.277Z,4.39
2022-12-08T22:48:39.216Z,4.38
2022-12-08T22:50:42.394Z,4.43
2022-12-08T22:52:45.260Z,4.50
2022-12-08T22:54:48.106Z,4.47
2022-12-08T22:56:51.053Z,4.43
2022-12-08T22:58:53.871Z,4.45
2022-12-08T23:00:56.776Z,4.36
2022-12-08T23:03:01.089Z,4.46
2022-12-08T23:05:04.671Z,4.41
2022-12-08T23:07:07.928Z,4.40
2022-12-08T23:09:10.803Z,4.41
2022-12-08T23:11:14.403Z,4.42
2022-12-08T23:13:17.385Z,4.39
2022-12-08T23:15:20.433Z,4.36
2022-12-08T23:17:23.367Z,4.34
2022-12-08T23:19:27.681Z,4.34
2022-12-08T23:21:30.616Z,4.37
2022-12-08T23:23:33.462Z,4.35
2022-12-08T23:25:36.489Z,4.34
2022-12-08T23:27:39.565Z,4.28
2022-12-08T23:29:42.383Z,4.32
2022-12-08T23:31:45.366Z,4.30
2022-12-08T23:33:48.755Z,4.30
2022-12-08T23:35:58.785Z,4.32
2022-12-08T23:38:01.813Z,4.30
2022-12-08T23:40:06.187Z,4.32
2022-12-08T23:42:09.574Z,4.34
2022-12-08T23:44:15.470Z,4.28
2022-12-08T23:46:21.104Z,4.30
2022-12-08T23:48:24.406Z,4.28
2022-12-08T23:50:27.186Z,4.28
2022-12-08T23:52:31.328Z,4.27
2022-12-08T23:54:35.889Z,4.28
2022-12-08T23:56:38.768Z,4.28
2022-12-08T23:58:42.665Z,4.28
